Terminal Aerodrome Forecast
Issued by NWS

Home | Current Version | Previous Version | Text Only | Print | Product List | Glossary On
Versions: 1 2 3 4 5 6 7 8 9 10 11 12 13 14 15 16 17
000
FTUS43 KGRR 281700
TAFLAN
TAF
KLAN 281740Z 2818/2918 17010KT P6SM BKN150
     FM290300 16012KT P6SM OVC035 WS020/18050KT
     FM290600 16014G20KT 4SM -FZRAPL OVC015 WS020/20050KT
     FM291000 17014G20KT 3SM -FZRAPL OVC009
     FM291400 21010G20KT 1SM -SNPL OVC009
     FM291700 30015G25KT 1SM -SNPL OVC009=

USA.gov is the U.S. government's official web portal to all federal, state and local government web resources and services.